HE34 weather

Kibrit Airport
Kibrit, Suez Governorate, Egypt

Public forecast

Using degrees Celsius for public forecast. Weather courtesy of forecast.io.

METAR (pilot weather report)

Closest report is Cairo International Airport, 56.9 nm (105.4 km) W. Retrieved 2019/05/21 03:30 UTC (0 seconds ago):

HECA 210330Z 05008KT CAVOK 23/15 Q1014 NOSIG

TAF (pilot weather forecast)

Forecast is more than 12 hours old.

Closest forecast is Cairo International Airport, 56.9 nm (105.4 km) W. Retrieved 2019/05/20 00:00 UTC (1 day ago):

TAF HECA 202300Z 2100/2206 05009KT CAVOK